createdAt,value
2018-01-22T00:01:37.950Z,58.60
2018-01-22T00:07:42.238Z,58.10
2018-01-22T00:13:46.383Z,58.10
2018-01-22T00:19:50.978Z,59.10
2018-01-22T00:25:55.423Z,59.20
2018-01-22T00:31:59.882Z,59.10
2018-01-22T00:38:04.113Z,59.00
2018-01-22T00:44:08.938Z,59.00
2018-01-22T00:50:13.734Z,59.50
2018-01-22T00:56:17.825Z,59.40
2018-01-22T01:02:22.768Z,59.60
2018-01-22T01:08:26.840Z,59.60
2018-01-22T01:14:31.483Z,59.80
2018-01-22T01:20:35.937Z,60.10
2018-01-22T01:26:40.592Z,59.80
2018-01-22T01:32:44.923Z,59.80
2018-01-22T01:38:49.171Z,59.50
2018-01-22T01:44:53.129Z,59.20
2018-01-22T01:50:57.150Z,58.80
2018-01-22T01:57:01.413Z,58.30
2018-01-22T02:03:05.890Z,58.30
2018-01-22T02:09:10.135Z,58.60
2018-01-22T02:15:14.426Z,58.90
2018-01-22T02:21:19.760Z,58.50
2018-01-22T02:27:23.803Z,58.50
2018-01-22T02:33:27.882Z,58.30
2018-01-22T02:39:32.981Z,59.90
2018-01-22T02:45:37.357Z,59.30
2018-01-22T02:51:41.567Z,59.50
2018-01-22T02:57:45.767Z,60.20
2018-01-22T03:03:50.031Z,61.40
2018-01-22T03:09:54.132Z,62.50
2018-01-22T03:15:58.369Z,63.00
2018-01-22T03:22:02.651Z,63.80
2018-01-22T03:28:07.114Z,64.10
2018-01-22T03:34:11.143Z,64.80
2018-01-22T03:40:15.354Z,65.70
2018-01-22T03:46:19.489Z,66.40
2018-01-22T03:52:23.654Z,66.20
2018-01-22T03:58:27.955Z,66.60
2018-01-22T04:04:32.085Z,66.40
2018-01-22T04:10:36.263Z,66.20
2018-01-22T04:16:40.683Z,66.70
2018-01-22T04:22:45.858Z,67.00
2018-01-22T04:28:50.561Z,67.20
2018-01-22T04:34:54.522Z,67.10
2018-01-22T04:40:59.529Z,68.10
2018-01-22T04:47:03.707Z,68.00
2018-01-22T04:53:08.068Z,68.30
2018-01-22T04:59:12.649Z,68.40
2018-01-22T05:05:16.683Z,67.90
2018-01-22T05:11:20.806Z,69.20
2018-01-22T05:17:24.949Z,69.10
2018-01-22T05:23:29.166Z,69.50
2018-01-22T05:29:33.714Z,69.40
2018-01-22T05:35:38.318Z,69.50
2018-01-22T05:41:42.963Z,69.70
2018-01-22T05:47:48.643Z,69.50
2018-01-22T05:53:53.391Z,69.30
2018-01-22T05:59:59.075Z,69.50
2018-01-22T06:06:03.713Z,69.50
2018-01-22T06:12:08.463Z,69.60
2018-01-22T06:18:13.573Z,69.60
2018-01-22T06:24:18.275Z,69.70
2018-01-22T06:30:23.560Z,69.50
2018-01-22T06:36:28.046Z,69.30
2018-01-22T06:42:32.157Z,69.50
2018-01-22T06:48:36.661Z,69.70
2018-01-22T06:54:40.883Z,69.70
2018-01-22T07:00:44.986Z,69.70
2018-01-22T07:06:49.436Z,69.70
2018-01-22T07:12:53.725Z,70.10
2018-01-22T07:18:57.947Z,70.20
2018-01-22T07:25:02.026Z,70.30
2018-01-22T07:31:06.217Z,70.70
2018-01-22T07:37:10.410Z,70.30
2018-01-22T07:43:15.450Z,71.40
